createdAt,value
2017-08-10T00:00:07.035Z,96857.50
2017-08-10T00:02:34.739Z,96859.33
2017-08-10T00:05:02.369Z,96870.11
2017-08-10T00:07:30.002Z,96880.02
2017-08-10T00:09:57.627Z,96887.79
2017-08-10T00:12:25.260Z,96898.14
2017-08-10T00:14:52.885Z,96893.05
2017-08-10T00:17:20.613Z,96897.81
2017-08-10T00:19:48.236Z,96897.91
2017-08-10T00:22:15.903Z,96898.39
2017-08-10T00:24:43.495Z,96901.91
2017-08-10T00:27:11.156Z,96904.97
2017-08-10T00:29:38.759Z,96896.09
2017-08-10T00:32:06.669Z,96897.00
2017-08-10T00:34:34.388Z,96908.64
2017-08-10T00:37:02.000Z,96919.02
2017-08-10T00:39:29.643Z,96934.94
2017-08-10T00:41:57.254Z,96946.65
2017-08-10T00:44:24.876Z,96952.31
2017-08-10T00:46:52.487Z,96966.22
2017-08-10T00:49:20.124Z,96968.54
2017-08-10T00:51:47.747Z,96980.69
2017-08-10T00:54:15.379Z,96984.23
2017-08-10T00:56:42.993Z,96981.41
2017-08-10T00:59:11.042Z,96989.32
2017-08-10T01:01:38.657Z,96985.97
2017-08-10T01:04:06.274Z,96991.59
2017-08-10T01:06:33.960Z,96989.91
2017-08-10T01:09:01.579Z,96983.45
2017-08-10T01:11:29.311Z,96977.48
2017-08-10T01:13:56.996Z,96979.67
2017-08-10T01:16:24.639Z,96984.77
2017-08-10T01:18:52.256Z,96986.87
2017-08-10T01:21:20.830Z,96985.08
2017-08-10T01:23:48.469Z,96972.22
2017-08-10T01:26:16.882Z,96979.00
2017-08-10T01:28:44.560Z,96975.09
2017-08-10T01:31:12.192Z,96975.45
2017-08-10T01:33:39.820Z,96985.77
2017-08-10T01:36:07.442Z,96986.67
2017-08-10T01:38:35.083Z,96992.71
2017-08-10T01:41:02.686Z,96998.33
2017-08-10T01:43:30.319Z,97000.12
2017-08-10T01:45:57.918Z,96990.34
2017-08-10T01:48:25.789Z,96993.07
2017-08-10T01:50:53.412Z,96984.55
2017-08-10T01:53:21.580Z,96988.91
2017-08-10T01:55:49.184Z,96995.48
2017-08-10T01:58:16.802Z,97009.23
2017-08-10T02:00:44.855Z,97003.78
2017-08-10T02:03:12.482Z,96996.92
2017-08-10T02:05:40.208Z,96986.77
2017-08-10T02:08:07.849Z,96989.87
2017-08-10T02:10:35.494Z,96999.83
2017-08-10T02:13:03.208Z,97004.61
2017-08-10T02:15:30.827Z,97005.19
2017-08-10T02:17:58.437Z,97000.05
2017-08-10T02:20:26.094Z,96994.88
2017-08-10T02:22:53.719Z,96995.73
2017-08-10T02:25:21.354Z,97002.19
2017-08-10T02:27:49.005Z,96992.34
2017-08-10T02:30:16.644Z,96991.09
2017-08-10T02:32:44.279Z,96993.20
2017-08-10T02:35:12.053Z,96994.12
2017-08-10T02:37:39.824Z,96991.63
2017-08-10T02:40:07.443Z,96984.43
2017-08-10T02:42:35.499Z,96993.95
2017-08-10T02:45:03.093Z,96997.02
2017-08-10T02:47:31.141Z,96995.38
2017-08-10T02:49:58.755Z,96992.45
2017-08-10T02:52:26.428Z,96991.20
2017-08-10T02:54:54.061Z,96988.63
2017-08-10T02:57:22.306Z,96987.34
2017-08-10T02:59:49.947Z,96985.63
2017-08-10T03:02:17.564Z,96987.38
2017-08-10T03:04:45.214Z,96986.98
2017-08-10T03:07:12.827Z,96988.73
2017-08-10T03:09:40.859Z,96981.56
2017-08-10T03:12:08.464Z,96979.91
2017-08-10T03:14:36.224Z,96978.70
2017-08-10T03:17:03.887Z,96980.91
2017-08-10T03:19:31.503Z,96976.23
2017-08-10T03:24:50.601Z,96973.27
2017-08-10T03:30:12.816Z,96980.17
2017-08-10T03:32:40.506Z,96984.52
2017-08-10T03:35:08.104Z,96979.45
2017-08-10T03:37:35.681Z,96988.53
2017-08-10T03:40:03.617Z,96983.82
2017-08-10T03:42:31.331Z,96985.10
2017-08-10T03:44:58.929Z,96985.93
2017-08-10T03:47:26.624Z,96981.31
2017-08-10T03:49:54.287Z,96983.48
2017-08-10T03:52:21.905Z,96984.06
2017-08-10T03:54:49.621Z,96984.19
2017-08-10T03:57:17.502Z,96982.05
2017-08-10T03:59:45.089Z,96982.05
2017-08-10T04:02:12.694Z,96980.28
2017-08-10T04:04:40.321Z,96983.64
2017-08-10T04:07:07.908Z,96989.59
2017-08-10T04:09:35.524Z,96992.16
2017-08-10T04:12:03.139Z,96998.64
2017-08-10T04:14:31.655Z,97002.91
2017-08-10T04:16:59.236Z,97002.85
2017-08-10T04:19:26.813Z,97002.03
2017-08-10T04:21:54.417Z,97005.45
2017-08-10T04:24:22.053Z,96998.66
2017-08-10T04:26:49.670Z,96999.09
2017-08-10T04:29:17.291Z,96994.33
2017-08-10T04:31:44.894Z,96999.44
2017-08-10T04:34:12.460Z,97004.13
2017-08-10T04:36:40.359Z,97010.55
2017-08-10T04:39:07.928Z,97011.41
2017-08-10T04:41:35.532Z,97014.77
2017-08-10T04:44:03.189Z,97008.35
2017-08-10T04:46:30.779Z,97016.45
2017-08-10T04:48:58.808Z,97019.41
2017-08-10T04:51:26.422Z,97020.30
2017-08-10T04:53:54.411Z,97019.89
2017-08-10T04:56:22.026Z,97024.14
2017-08-10T04:58:49.611Z,97017.70
2017-08-10T05:01:17.206Z,97012.96
2017-08-10T05:03:44.802Z,97016.75
2017-08-10T05:06:12.968Z,97015.41
2017-08-10T05:08:40.682Z,97008.53
2017-08-10T05:11:08.334Z,97000.84
2017-08-10T05:13:35.937Z,97011.50
2017-08-10T05:16:03.703Z,97014.03
2017-08-10T05:18:31.484Z,97005.45
2017-08-10T05:20:59.207Z,97009.30
2017-08-10T05:23:27.212Z,97008.99
2017-08-10T05:25:54.800Z,97009.45
2017-08-10T05:28:22.384Z,97010.30
2017-08-10T05:30:50.160Z,97008.99
2017-08-10T05:33:17.750Z,97005.84
2017-08-10T05:35:45.358Z,97008.44
2017-08-10T05:38:12.971Z,97007.61
2017-08-10T05:40:40.594Z,97015.28
2017-08-10T05:43:08.173Z,97020.26
2017-08-10T05:45:36.037Z,97025.27
2017-08-10T05:48:03.642Z,97031.72
2017-08-10T05:50:31.246Z,97030.49
2017-08-10T05:52:58.890Z,97040.23
2017-08-10T05:55:26.492Z,97039.81
2017-08-10T05:57:54.088Z,97035.04
2017-08-10T06:00:21.695Z,97033.66
2017-08-10T06:02:49.305Z,97029.37
2017-08-10T06:05:16.915Z,97028.09
2017-08-10T06:07:44.794Z,97027.61
2017-08-10T06:10:12.380Z,97032.64
2017-08-10T06:12:39.977Z,97040.84
2017-08-10T06:15:07.737Z,97043.83
2017-08-10T06:17:35.379Z,97035.34
2017-08-10T06:20:03.139Z,97033.27
2017-08-10T06:22:30.816Z,97034.48
2017-08-10T06:24:58.448Z,97043.41
2017-08-10T06:27:26.177Z,97043.27
2017-08-10T06:29:54.292Z,97035.93
2017-08-10T06:32:21.869Z,97038.33
2017-08-10T06:34:49.465Z,97039.15
2017-08-10T06:37:17.081Z,97037.05
2017-08-10T06:39:44.655Z,97039.55
2017-08-10T06:42:12.620Z,97033.98
2017-08-10T06:44:40.218Z,97036.55
2017-08-10T06:47:07.802Z,97047.14
2017-08-10T06:49:35.430Z,97049.64
2017-08-10T06:52:03.022Z,97044.44
2017-08-10T06:54:30.645Z,97051.22
2017-08-10T06:56:58.235Z,97052.43
2017-08-10T06:59:25.862Z,97046.86
2017-08-10T07:01:53.459Z,97054.53
2017-08-10T07:04:21.453Z,97060.42
2017-08-10T07:06:49.048Z,97064.42
2017-08-10T07:09:16.619Z,97061.49
2017-08-10T07:11:44.394Z,97067.45
2017-08-10T07:14:12.012Z,97065.81
2017-08-10T07:16:39.676Z,97061.45
2017-08-10T07:19:07.457Z,97069.03
2017-08-10T07:21:35.363Z,97073.70
2017-08-10T07:24:02.987Z,97079.20
2017-08-10T07:26:30.595Z,97090.19
2017-08-10T07:28:58.356Z,97100.12
2017-08-10T07:31:25.977Z,97103.51
2017-08-10T07:33:53.669Z,97106.80
2017-08-10T07:36:21.305Z,97105.05
2017-08-10T07:38:49.361Z,97095.94
2017-08-10T07:41:17.118Z,97082.05
2017-08-10T07:43:44.806Z,97080.64
2017-08-10T07:46:12.431Z,97081.27
2017-08-10T07:48:40.025Z,97087.66
2017-08-10T07:51:07.853Z,97080.25
2017-08-10T07:53:35.434Z,97081.42
2017-08-10T07:56:03.366Z,97080.92
2017-08-10T07:58:30.960Z,97077.52
2017-08-10T08:00:58.562Z,97078.81
2017-08-10T08:03:26.179Z,97076.71
2017-08-10T08:05:53.779Z,97077.45
2017-08-10T08:08:21.382Z,97070.20
2017-08-10T08:10:48.973Z,97065.05
2017-08-10T08:13:16.587Z,97074.87
2017-08-10T08:15:44.196Z,97074.02
2017-08-10T08:18:12.319Z,97081.77
2017-08-10T08:20:40.088Z,97076.07
2017-08-10T08:23:07.915Z,97076.42
2017-08-10T08:25:35.639Z,97072.44
2017-08-10T08:28:03.279Z,97065.03
2017-08-10T08:30:30.981Z,97069.78
2017-08-10T08:32:58.905Z,97074.94
2017-08-10T08:35:26.670Z,97068.41
2017-08-10T08:37:54.408Z,97070.12
2017-08-10T08:40:22.446Z,97066.96
2017-08-10T08:42:50.069Z,97070.17
2017-08-10T08:45:17.669Z,97068.71
2017-08-10T08:47:45.301Z,97077.34
2017-08-10T08:50:12.913Z,97069.70
2017-08-10T08:52:40.545Z,97065.41
2017-08-10T08:55:08.236Z,97056.56
2017-08-10T08:57:36.274Z,97063.59
2017-08-10T09:00:03.874Z,97061.84
2017-08-10T09:02:31.485Z,97050.81
2017-08-10T09:04:59.123Z,97048.58
2017-08-10T09:07:26.744Z,97039.89
2017-08-10T09:09:54.793Z,97029.89
2017-08-10T09:12:22.480Z,97042.49
2017-08-10T09:14:50.096Z,97042.44
2017-08-10T09:17:17.711Z,97029.69
2017-08-10T09:19:45.305Z,97034.94
2017-08-10T09:22:12.911Z,97035.80
2017-08-10T09:24:40.523Z,97047.39
2017-08-10T09:27:08.143Z,97050.55
2017-08-10T09:29:35.761Z,97048.20
2017-08-10T09:32:03.392Z,97046.16
2017-08-10T09:34:31.051Z,97054.94
2017-08-10T09:36:59.678Z,97042.77
2017-08-10T09:39:27.353Z,97049.30
2017-08-10T09:41:54.926Z,97049.44
2017-08-10T09:44:22.890Z,97043.48
2017-08-10T09:46:50.535Z,97041.80
2017-08-10T09:49:18.176Z,97043.04
2017-08-10T09:51:45.821Z,97047.67
2017-08-10T09:54:13.478Z,97032.27
2017-08-10T09:56:41.109Z,97035.23
2017-08-10T09:59:08.738Z,97024.50
2017-08-10T10:01:36.706Z,97020.64
2017-08-10T10:04:04.301Z,97021.87
2017-08-10T10:06:32.064Z,97016.72
2017-08-10T10:08:59.704Z,97017.20
2017-08-10T10:11:27.287Z,97008.77
2017-08-10T10:13:54.923Z,97012.28
2017-08-10T10:16:22.530Z,97010.22
2017-08-10T10:18:50.623Z,97014.05
2017-08-10T10:21:18.218Z,97008.47
2017-08-10T10:23:46.248Z,97007.79
2017-08-10T10:26:13.885Z,97001.93
2017-08-10T10:28:41.483Z,97010.34
2017-08-10T10:31:09.092Z,97005.06
2017-08-10T10:33:36.712Z,97004.59
2017-08-10T10:36:04.698Z,96997.61
2017-08-10T10:38:32.305Z,96991.37
2017-08-10T10:40:59.901Z,96994.62
2017-08-10T10:43:27.619Z,97002.21
2017-08-10T10:45:55.230Z,96994.53
2017-08-10T10:48:22.856Z,96997.37
2017-08-10T10:50:50.479Z,96983.23
2017-08-10T10:53:18.273Z,96989.48
2017-08-10T10:55:45.868Z,96986.25
2017-08-10T10:58:13.882Z,96982.24
2017-08-10T11:00:41.666Z,96975.81
2017-08-10T11:03:09.294Z,96985.29
2017-08-10T11:05:36.908Z,96985.69
2017-08-10T11:08:04.574Z,96984.39
2017-08-10T11:10:32.246Z,96984.25
2017-08-10T11:12:59.857Z,96991.88
2017-08-10T11:15:27.758Z,96994.27
2017-08-10T11:17:56.588Z,96990.45
2017-08-10T11:20:24.205Z,96985.44
2017-08-10T11:22:52.160Z,96987.97
2017-08-10T11:25:19.778Z,97001.61
2017-08-10T11:27:47.389Z,96999.80
2017-08-10T11:30:14.995Z,97001.13
2017-08-10T11:32:42.628Z,96993.41
2017-08-10T11:35:10.246Z,97002.52
2017-08-10T11:37:37.874Z,97007.43
2017-08-10T11:40:05.490Z,97004.77
2017-08-10T11:42:33.085Z,97006.37
2017-08-10T11:45:00.864Z,97001.09
2017-08-10T11:47:28.467Z,96988.63
2017-08-10T11:49:56.073Z,96986.45
2017-08-10T11:52:23.889Z,96995.94
2017-08-10T11:54:51.519Z,96998.03
2017-08-10T11:57:19.125Z,96988.11
2017-08-10T11:59:46.754Z,96979.95
2017-08-10T12:02:14.394Z,96979.76
2017-08-10T12:04:42.005Z,96981.31
2017-08-10T12:07:09.966Z,96987.02
2017-08-10T12:09:37.580Z,96980.09
2017-08-10T12:12:05.183Z,96982.13
2017-08-10T12:14:32.834Z,96981.13
2017-08-10T12:17:00.426Z,96984.02
2017-08-10T12:19:28.383Z,96976.95
2017-08-10T12:21:55.970Z,96979.38
2017-08-10T12:24:23.598Z,96984.85
2017-08-10T12:26:51.244Z,96988.95
2017-08-10T12:29:18.854Z,96996.84
2017-08-10T12:31:46.794Z,96999.13
2017-08-10T12:34:14.406Z,96999.71
2017-08-10T12:36:42.155Z,96985.30
2017-08-10T12:39:09.784Z,96982.59
2017-08-10T12:41:37.404Z,96988.66
2017-08-10T12:44:06.057Z,96984.73
2017-08-10T12:46:33.668Z,96981.20
2017-08-10T12:49:01.299Z,96982.97
2017-08-10T12:51:28.925Z,96982.95
2017-08-10T12:53:56.970Z,96988.78
2017-08-10T12:56:24.583Z,96990.45
2017-08-10T12:58:52.201Z,96989.08
2017-08-10T13:01:19.849Z,96988.74
2017-08-10T13:03:47.460Z,96978.20
2017-08-10T13:06:15.077Z,96982.77
2017-08-10T13:08:42.814Z,96981.86
2017-08-10T13:11:10.439Z,96987.81
2017-08-10T13:13:38.046Z,96999.47
2017-08-10T13:16:06.030Z,97004.86
2017-08-10T13:18:33.616Z,96986.92
2017-08-10T13:21:01.247Z,96981.68
2017-08-10T13:23:28.883Z,96970.36
2017-08-10T13:25:56.478Z,96976.41
2017-08-10T13:28:24.098Z,96973.32
2017-08-10T13:30:51.745Z,96967.25
2017-08-10T13:33:19.504Z,96975.41
2017-08-10T13:35:47.168Z,96987.91
2017-08-10T13:38:15.090Z,96975.18
2017-08-10T13:40:44.248Z,96973.58
2017-08-10T13:43:11.934Z,96967.23
2017-08-10T13:45:40.920Z,96943.66
2017-08-10T13:48:08.517Z,96939.74
2017-08-10T13:50:36.688Z,96938.89
2017-08-10T13:53:04.340Z,96923.53
2017-08-10T13:55:32.006Z,96922.72
2017-08-10T13:57:59.646Z,96896.04
2017-08-10T14:00:27.567Z,96886.44
2017-08-10T14:02:56.397Z,96878.70
2017-08-10T14:05:24.000Z,96888.21
2017-08-10T14:07:52.084Z,96899.15
2017-08-10T14:10:20.067Z,96914.23
2017-08-10T14:12:48.033Z,96921.16
2017-08-10T14:15:15.635Z,96921.30
2017-08-10T14:17:43.265Z,96915.31
2017-08-10T14:20:10.897Z,96917.99
2017-08-10T14:22:38.561Z,96916.91
2017-08-10T14:25:06.279Z,96915.81
2017-08-10T14:27:33.890Z,96929.75
2017-08-10T14:30:02.800Z,96932.94
2017-08-10T14:32:30.838Z,96947.29
2017-08-10T14:35:00.117Z,96951.25
2017-08-10T14:37:28.184Z,96956.50
2017-08-10T14:39:55.796Z,96962.55
2017-08-10T14:42:23.482Z,96965.11
2017-08-10T14:44:51.089Z,96972.50
2017-08-10T14:47:19.312Z,96970.84
2017-08-10T14:49:48.976Z,96991.84
2017-08-10T14:52:17.161Z,97019.73
2017-08-10T14:54:45.201Z,97036.55
2017-08-10T14:57:12.817Z,97039.16
2017-08-10T14:59:40.478Z,97034.62
2017-08-10T15:02:08.260Z,97039.11
2017-08-10T15:04:36.695Z,97035.42
2017-08-10T15:07:04.789Z,97026.94
2017-08-10T15:09:32.766Z,97027.95
2017-08-10T15:12:01.998Z,97031.94
2017-08-10T15:14:29.657Z,97021.73
2017-08-10T15:16:58.526Z,97017.02
2017-08-10T15:19:26.152Z,97020.95
2017-08-10T15:21:55.114Z,97011.14
2017-08-10T15:24:23.086Z,97004.41
2017-08-10T15:26:50.715Z,97008.38
2017-08-10T15:29:18.335Z,96999.50
2017-08-10T15:31:45.969Z,96987.97
2017-08-10T15:34:13.586Z,97001.09
2017-08-10T15:36:41.603Z,96999.96
2017-08-10T15:39:09.600Z,96990.27
2017-08-10T15:41:37.232Z,96991.98
2017-08-10T15:44:04.875Z,96988.13
2017-08-10T15:46:33.700Z,96972.78
2017-08-10T15:49:01.336Z,96974.14
2017-08-10T15:51:28.958Z,96975.14
2017-08-10T15:53:56.888Z,96979.54
2017-08-10T15:56:24.513Z,96991.67
2017-08-10T15:58:52.712Z,96998.52
2017-08-10T16:01:20.350Z,97004.94
2017-08-10T16:03:47.978Z,97007.51
2017-08-10T16:06:15.869Z,97020.87
2017-08-10T16:08:44.460Z,97013.67
2017-08-10T16:11:12.056Z,97013.41
2017-08-10T16:13:39.726Z,97013.84
2017-08-10T16:16:07.337Z,97003.25
2017-08-10T16:18:35.098Z,97009.20
2017-08-10T16:21:04.475Z,97014.80
2017-08-10T16:23:33.537Z,97020.09
2017-08-10T16:26:02.730Z,97033.52
2017-08-10T16:28:30.594Z,97047.85
2017-08-10T16:30:58.222Z,97047.09
2017-08-10T16:33:25.816Z,97064.56
2017-08-10T16:35:53.849Z,97063.84
2017-08-10T16:38:22.944Z,97080.23
2017-08-10T16:40:51.579Z,97100.11
2017-08-10T16:43:20.770Z,97111.00
2017-08-10T16:45:48.576Z,97110.74
2017-08-10T16:48:16.310Z,97117.72
2017-08-10T16:50:43.913Z,97103.42
2017-08-10T16:53:12.121Z,97080.09
2017-08-10T16:55:40.989Z,97053.44
2017-08-10T16:58:08.597Z,97076.88
2017-08-10T17:00:36.217Z,97086.28
2017-08-10T17:03:03.913Z,97076.03
2017-08-10T17:05:31.563Z,97097.78
2017-08-10T17:08:00.418Z,97094.34
2017-08-10T17:10:28.354Z,97087.64
2017-08-10T17:12:56.026Z,97103.91
2017-08-10T17:15:23.617Z,97129.28
2017-08-10T17:17:51.341Z,97120.52
2017-08-10T17:20:18.978Z,97121.36
2017-08-10T17:22:47.013Z,97119.72
2017-08-10T17:25:14.614Z,97136.34
2017-08-10T17:27:42.682Z,97145.72
2017-08-10T17:30:12.085Z,97133.75
2017-08-10T17:32:40.207Z,97128.65
2017-08-10T17:35:07.871Z,97130.34
2017-08-10T17:37:35.509Z,97144.88
2017-08-10T17:40:03.494Z,97152.57
2017-08-10T17:42:31.118Z,97152.25
2017-08-10T17:44:59.773Z,97153.52
2017-08-10T17:47:28.949Z,97165.05
2017-08-10T17:49:56.614Z,97182.58
2017-08-10T17:52:24.229Z,97180.92
2017-08-10T17:54:51.834Z,97165.20
2017-08-10T17:57:19.764Z,97133.30
2017-08-10T17:59:47.350Z,97132.89
2017-08-10T18:02:14.962Z,97148.66
2017-08-10T18:04:43.943Z,97152.94
2017-08-10T18:07:11.565Z,97161.09
2017-08-10T18:09:39.539Z,97173.05
2017-08-10T18:12:07.178Z,97172.63
2017-08-10T18:14:34.809Z,97164.98
2017-08-10T18:17:02.422Z,97146.66
2017-08-10T18:19:30.092Z,97134.33
2017-08-10T18:21:57.736Z,97137.77
2017-08-10T18:24:26.497Z,97144.17
2017-08-10T18:26:55.421Z,97152.23
2017-08-10T18:29:23.004Z,97150.12
2017-08-10T18:31:52.129Z,97135.67
2017-08-10T18:34:20.696Z,97133.53
2017-08-10T18:36:49.783Z,97145.04
2017-08-10T18:39:17.399Z,97145.04
2017-08-10T18:41:45.072Z,97148.89
2017-08-10T18:44:14.738Z,97148.03
2017-08-10T18:46:42.529Z,97168.46
2017-08-10T18:49:10.181Z,97171.03
2017-08-10T18:51:38.133Z,97168.46
2017-08-10T18:54:05.827Z,97172.72
2017-08-10T18:56:33.440Z,97178.70
2017-08-10T18:59:01.095Z,97177.86
2017-08-10T19:01:28.745Z,97178.70
2017-08-10T19:03:56.332Z,97179.13
2017-08-10T19:06:24.300Z,97186.83
2017-08-10T19:08:52.043Z,97191.92
2017-08-10T19:11:21.174Z,97181.30
2017-08-10T19:13:48.801Z,97177.48
2017-08-10T19:16:16.424Z,97172.79
2017-08-10T19:18:44.670Z,97169.41
2017-08-10T19:21:12.976Z,97154.95
2017-08-10T19:23:42.204Z,97165.98
2017-08-10T19:26:10.566Z,97175.80
2017-08-10T19:28:38.219Z,97176.62
2017-08-10T19:31:05.858Z,97179.63
2017-08-10T19:33:33.486Z,97182.58
2017-08-10T19:36:01.127Z,97177.05
2017-08-10T19:38:28.765Z,97177.92
2017-08-10T19:40:56.864Z,97188.11
2017-08-10T19:43:24.469Z,97180.88
2017-08-10T19:45:52.096Z,97180.91
2017-08-10T19:48:19.722Z,97184.72
2017-08-10T19:50:47.341Z,97192.81
2017-08-10T19:53:14.964Z,97197.48
2017-08-10T19:55:42.564Z,97200.88
2017-08-10T19:58:10.208Z,97197.90
2017-08-10T20:00:37.782Z,97199.19
2017-08-10T20:03:05.825Z,97197.05
2017-08-10T20:05:33.408Z,97188.54
2017-08-10T20:08:01.129Z,97186.84
2017-08-10T20:10:28.820Z,97177.91
2017-08-10T20:12:56.615Z,97172.38
2017-08-10T20:15:24.693Z,97173.24
2017-08-10T20:17:53.704Z,97175.78
2017-08-10T20:20:21.306Z,97184.29
2017-08-10T20:22:49.211Z,97187.28
2017-08-10T20:25:16.849Z,97191.95
2017-08-10T20:27:44.503Z,97199.17
2017-08-10T20:30:12.340Z,97200.05
2017-08-10T20:32:39.987Z,97197.06
2017-08-10T20:35:07.572Z,97194.49
2017-08-10T20:37:35.546Z,97211.96
2017-08-10T20:40:03.384Z,97213.22
2017-08-10T20:42:30.983Z,97216.62
2017-08-10T20:44:58.619Z,97213.23
2017-08-10T20:47:26.560Z,97227.69
2017-08-10T20:49:54.474Z,97231.95
2017-08-10T20:52:22.091Z,97232.35
2017-08-10T20:54:49.687Z,97243.02
2017-08-10T20:57:17.340Z,97237.47
2017-08-10T20:59:45.058Z,97238.33
2017-08-10T21:02:12.670Z,97239.58
2017-08-10T21:04:40.511Z,97229.37
2017-08-10T21:07:08.342Z,97235.77
2017-08-10T21:09:35.951Z,97235.36
2017-08-10T21:12:03.952Z,97246.40
2017-08-10T21:14:31.565Z,97259.59
2017-08-10T21:16:59.164Z,97271.52
2017-08-10T21:19:26.784Z,97288.51
2017-08-10T21:21:54.429Z,97285.96
2017-08-10T21:24:22.094Z,97282.13
2017-08-10T21:26:49.695Z,97271.52
2017-08-10T21:29:17.289Z,97266.39
2017-08-10T21:31:44.982Z,97253.64
2017-08-10T21:34:12.617Z,97248.11
2017-08-10T21:36:40.221Z,97249.80
2017-08-10T21:39:08.223Z,97245.99
2017-08-10T21:41:35.889Z,97253.65
2017-08-10T21:44:03.480Z,97242.58
2017-08-10T21:46:31.115Z,97242.14
2017-08-10T21:48:58.698Z,97234.91
2017-08-10T21:51:26.324Z,97225.16
2017-08-10T21:53:54.048Z,97217.49
2017-08-10T21:56:21.943Z,97212.38
2017-08-10T21:58:49.565Z,97213.24
2017-08-10T22:01:17.152Z,97208.14
2017-08-10T22:03:44.765Z,97201.33
2017-08-10T22:06:12.423Z,97197.50
2017-08-10T22:08:40.023Z,97191.53
2017-08-10T22:11:07.622Z,97197.92
2017-08-10T22:13:35.594Z,97192.80
2017-08-10T22:16:03.196Z,97199.20
2017-08-10T22:18:30.805Z,97197.91
2017-08-10T22:20:58.409Z,97199.62
2017-08-10T22:23:26.036Z,97207.27
2017-08-10T22:25:53.748Z,97209.39
2017-08-10T22:28:21.460Z,97199.17
2017-08-10T22:30:49.230Z,97199.17
2017-08-10T22:33:16.802Z,97197.88
2017-08-10T22:35:44.889Z,97202.14
2017-08-10T22:38:12.495Z,97199.59
2017-08-10T22:40:40.136Z,97190.25
2017-08-10T22:43:07.744Z,97173.27
2017-08-10T22:45:35.333Z,97159.20
2017-08-10T22:48:03.202Z,97148.16
2017-08-10T22:50:30.878Z,97151.56
2017-08-10T22:52:58.817Z,97157.51
2017-08-10T22:55:26.522Z,97139.61
2017-08-10T22:57:54.096Z,97141.79
2017-08-10T23:00:21.927Z,97151.57
2017-08-10T23:02:49.534Z,97148.56
2017-08-10T23:05:17.315Z,97141.34
2017-08-10T23:07:44.910Z,97137.53
2017-08-10T23:10:12.837Z,97135.39
2017-08-10T23:12:40.424Z,97129.85
2017-08-10T23:15:08.036Z,97114.53
2017-08-10T23:17:35.646Z,97107.75
2017-08-10T23:20:03.226Z,97112.40
2017-08-10T23:22:30.825Z,97109.88
2017-08-10T23:24:58.424Z,97115.38
2017-08-10T23:27:26.065Z,97123.05
2017-08-10T23:29:53.688Z,97138.38
2017-08-10T23:32:21.614Z,97141.34
2017-08-10T23:34:49.278Z,97143.47
2017-08-10T23:37:17.017Z,97144.75
2017-08-10T23:39:44.631Z,97142.59
2017-08-10T23:42:12.242Z,97133.66
2017-08-10T23:44:39.880Z,97126.03
2017-08-10T23:47:07.480Z,97117.94
2017-08-10T23:49:35.220Z,97112.42
2017-08-10T23:52:02.992Z,97108.19
2017-08-10T23:54:30.992Z,97091.61
2017-08-10T23:56:58.574Z,97089.91
2017-08-10T23:59:26.193Z,97089.05
